createdAt,value
2019-04-01T00:00:06.929Z,0.00
2019-04-01T00:01:07.722Z,0.00
2019-04-01T00:02:06.956Z,0.00
2019-04-01T00:03:06.978Z,0.00
2019-04-01T00:04:06.985Z,0.00
2019-04-01T00:05:06.996Z,0.00
2019-04-01T00:06:07.017Z,0.00
2019-04-01T00:07:07.025Z,0.00
2019-04-01T00:08:07.046Z,0.00
2019-04-01T00:09:07.053Z,0.00
2019-04-01T00:10:07.070Z,0.00
2019-04-01T00:11:07.086Z,0.00
2019-04-01T00:12:07.097Z,0.00
2019-04-01T00:13:07.115Z,0.00
2019-04-01T00:14:07.126Z,0.00
2019-04-01T00:15:07.142Z,0.00
2019-04-01T00:16:07.152Z,0.00
2019-04-01T00:17:07.169Z,0.00
2019-04-01T00:18:07.187Z,0.00
2019-04-01T00:19:07.196Z,0.00
2019-04-01T00:20:07.207Z,0.00
2019-04-01T00:21:07.222Z,0.00
2019-04-01T00:22:07.237Z,0.00
2019-04-01T00:23:07.416Z,0.00
2019-04-01T00:24:07.267Z,0.00
2019-04-01T00:25:07.286Z,0.00
2019-04-01T00:26:07.293Z,0.00
2019-04-01T00:27:07.311Z,0.00
2019-04-01T00:28:07.324Z,0.00
2019-04-01T00:29:07.336Z,0.00
2019-04-01T00:30:07.354Z,0.00
2019-04-01T00:31:07.364Z,0.00
2019-04-01T00:32:07.378Z,0.00
2019-04-01T00:33:07.399Z,0.00
2019-04-01T00:34:07.411Z,0.00
2019-04-01T00:35:07.421Z,0.00
2019-04-01T00:36:07.437Z,0.00
2019-04-01T00:37:07.452Z,0.00
2019-04-01T00:38:07.462Z,0.00
2019-04-01T00:39:07.488Z,0.00
2019-04-01T00:40:07.490Z,0.00
2019-04-01T00:41:07.511Z,0.00
2019-04-01T00:42:07.522Z,0.00
2019-04-01T00:43:07.536Z,0.00
2019-04-01T00:44:07.571Z,0.00
2019-04-01T00:45:07.563Z,0.00
2019-04-01T00:46:07.578Z,0.00
2019-04-01T00:47:07.590Z,0.00
2019-04-01T00:48:07.608Z,0.00
2019-04-01T00:49:07.624Z,0.00
2019-04-01T00:50:07.634Z,0.00
2019-04-01T00:51:07.646Z,0.00
2019-04-01T00:52:07.662Z,0.00
2019-04-01T00:53:07.673Z,0.00
2019-04-01T00:54:07.690Z,0.00
2019-04-01T00:55:07.711Z,0.00
2019-04-01T00:56:07.717Z,0.00
2019-04-01T00:57:07.737Z,0.00
2019-04-01T00:58:07.747Z,0.00
2019-04-01T00:59:07.764Z,0.00
2019-04-01T01:00:07.775Z,0.00
2019-04-01T01:01:07.789Z,0.00
2019-04-01T01:02:07.803Z,0.00
2019-04-01T01:03:07.817Z,0.00
2019-04-01T01:04:07.831Z,0.00
2019-04-01T01:05:07.845Z,0.00
2019-04-01T01:06:07.856Z,0.00
2019-04-01T01:07:07.874Z,0.00
2019-04-01T01:08:07.888Z,0.00
2019-04-01T01:09:07.901Z,0.00
2019-04-01T01:10:07.916Z,0.00
2019-04-01T01:11:07.927Z,0.00
2019-04-01T01:12:07.944Z,0.00
2019-04-01T01:13:07.965Z,0.00
2019-04-01T01:14:07.977Z,0.00
2019-04-01T01:15:07.986Z,0.00
2019-04-01T01:16:07.997Z,0.00
2019-04-01T01:17:08.018Z,0.00
2019-04-01T01:18:08.025Z,0.00
2019-04-01T01:19:08.042Z,0.00
2019-04-01T01:20:08.059Z,0.00
2019-04-01T01:21:08.068Z,0.00
2019-04-01T01:22:08.084Z,0.00
2019-04-01T01:23:08.096Z,0.00
2019-04-01T01:24:08.109Z,0.00
2019-04-01T01:25:08.133Z,0.00
2019-04-01T01:26:08.139Z,0.00
2019-04-01T01:27:08.155Z,0.00
2019-04-01T01:28:08.168Z,0.00
2019-04-01T01:29:08.181Z,0.00
2019-04-01T01:30:08.197Z,0.00
2019-04-01T01:31:08.207Z,0.00
2019-04-01T01:32:08.228Z,0.00
2019-04-01T01:33:08.235Z,0.00
2019-04-01T01:34:08.255Z,0.00
2019-04-01T01:35:08.266Z,0.00
2019-04-01T01:36:08.280Z,0.00
2019-04-01T01:37:08.294Z,0.00
2019-04-01T01:38:08.308Z,0.00
2019-04-01T01:39:08.319Z,0.00
2019-04-01T01:40:08.337Z,0.00
2019-04-01T01:41:08.349Z,0.00
2019-04-01T01:42:08.363Z,0.00
2019-04-01T01:43:08.376Z,0.00
2019-04-01T01:44:08.389Z,0.00
2019-04-01T01:45:08.406Z,0.00
2019-04-01T01:46:08.419Z,0.00
2019-04-01T01:47:08.431Z,0.00
2019-04-01T01:48:08.447Z,0.00
2019-04-01T01:49:08.459Z,0.00
2019-04-01T01:50:08.477Z,0.00
2019-04-01T01:51:08.490Z,0.00
2019-04-01T01:52:08.504Z,0.00
2019-04-01T01:53:08.517Z,0.00
2019-04-01T01:54:08.534Z,0.00
2019-04-01T01:55:08.551Z,0.00
2019-04-01T01:56:08.559Z,0.00
2019-04-01T01:57:08.571Z,0.00
2019-04-01T01:58:08.585Z,0.00
2019-04-01T01:59:08.599Z,0.00
2019-04-01T02:00:08.619Z,0.00
2019-04-01T02:01:08.627Z,0.00
2019-04-01T02:02:08.643Z,0.00
2019-04-01T02:03:08.657Z,0.00
2019-04-01T02:04:08.676Z,0.00
2019-04-01T02:05:08.691Z,0.00
2019-04-01T02:06:08.700Z,0.00
2019-04-01T02:07:08.717Z,0.00
2019-04-01T02:08:08.727Z,0.00
2019-04-01T02:09:08.739Z,0.00
2019-04-01T02:10:08.753Z,0.00
2019-04-01T02:11:08.773Z,0.00
2019-04-01T02:12:08.784Z,0.00
2019-04-01T02:13:08.796Z,0.00
2019-04-01T02:14:08.809Z,0.00
2019-04-01T02:15:08.833Z,0.00
2019-04-01T02:16:08.836Z,0.00
2019-04-01T02:17:08.851Z,0.00
2019-04-01T02:18:08.865Z,0.00
2019-04-01T02:19:08.882Z,0.00
2019-04-01T02:20:08.893Z,0.00
2019-04-01T02:21:08.908Z,0.00
2019-04-01T02:22:08.928Z,0.00
2019-04-01T02:23:08.934Z,0.00
2019-04-01T02:24:08.948Z,0.00
2019-04-01T02:25:08.964Z,0.00
2019-04-01T02:26:08.981Z,0.00
2019-04-01T02:27:08.991Z,0.00
2019-04-01T02:28:09.006Z,0.00
2019-04-01T02:29:09.020Z,0.00
2019-04-01T02:30:09.035Z,0.00
2019-04-01T02:31:09.047Z,0.00
2019-04-01T02:32:09.072Z,0.00
2019-04-01T02:33:09.076Z,0.00
2019-04-01T02:34:09.094Z,0.00
2019-04-01T02:35:09.118Z,0.00
2019-04-01T02:36:09.116Z,0.00
2019-04-01T02:37:09.129Z,0.00
2019-04-01T02:38:09.169Z,0.00
2019-04-01T02:39:09.172Z,0.00
2019-04-01T02:40:09.178Z,0.00
2019-04-01T02:41:09.292Z,0.00
2019-04-01T02:42:09.205Z,0.00
2019-04-01T02:43:09.215Z,0.00
2019-04-01T02:44:09.237Z,0.00
2019-04-01T02:45:09.242Z,0.00
2019-04-01T02:46:09.261Z,0.00
2019-04-01T02:47:09.289Z,0.00
2019-04-01T02:48:09.281Z,0.00
2019-04-01T02:49:09.298Z,0.00
2019-04-01T02:50:09.328Z,0.00
2019-04-01T02:51:09.332Z,0.00
2019-04-01T02:52:09.342Z,0.00
2019-04-01T02:53:09.354Z,0.00
2019-04-01T02:54:09.374Z,0.00
2019-04-01T02:55:09.381Z,0.00
2019-04-01T02:56:09.394Z,0.00
2019-04-01T02:57:09.412Z,0.00
2019-04-01T02:58:09.421Z,0.00
2019-04-01T02:59:09.438Z,0.00
2019-04-01T03:00:09.455Z,0.00
2019-04-01T03:01:09.469Z,0.00
2019-04-01T03:02:09.477Z,0.00
2019-04-01T03:03:09.492Z,0.00
2019-04-01T03:04:09.516Z,0.00
2019-04-01T03:05:09.517Z,0.00
2019-04-01T03:06:09.534Z,0.00
2019-04-01T03:07:09.547Z,0.00
2019-04-01T03:08:09.559Z,0.00
2019-04-01T03:09:09.586Z,0.00
2019-04-01T03:10:09.614Z,0.00
2019-04-01T03:11:11.064Z,0.00
2019-04-01T03:12:09.686Z,0.00
2019-04-01T03:13:09.629Z,0.00
2019-04-01T03:14:09.645Z,0.00
2019-04-01T03:15:09.657Z,0.00
2019-04-01T03:16:09.671Z,0.00
2019-04-01T03:17:09.685Z,0.00
2019-04-01T03:18:09.698Z,0.00
2019-04-01T03:19:09.725Z,0.00
2019-04-01T03:20:09.783Z,0.00
2019-04-01T03:21:09.739Z,0.00
2019-04-01T03:22:09.751Z,0.00
2019-04-01T03:23:09.773Z,0.00
2019-04-01T03:24:09.780Z,0.00
2019-04-01T03:25:09.802Z,0.00
2019-04-01T03:26:09.816Z,0.00
2019-04-01T03:27:09.821Z,0.00
2019-04-01T03:28:09.833Z,0.00
2019-04-01T03:29:09.851Z,0.00
2019-04-01T03:30:09.896Z,0.00
2019-04-01T03:31:09.878Z,0.00
2019-04-01T03:32:09.892Z,0.00
2019-04-01T03:33:09.914Z,0.00
2019-04-01T03:34:09.916Z,0.00
2019-04-01T03:35:09.933Z,0.00
2019-04-01T03:36:09.955Z,0.00
2019-04-01T03:37:09.961Z,0.00
2019-04-01T03:38:09.987Z,0.00
2019-04-01T03:39:09.987Z,0.00
2019-04-01T03:40:10.010Z,0.00
2019-04-01T03:41:10.038Z,0.00
2019-04-01T03:42:10.030Z,0.00
2019-04-01T03:43:10.039Z,0.00
2019-04-01T03:44:10.054Z,0.00
2019-04-01T03:45:10.070Z,0.00
2019-04-01T03:46:10.083Z,0.00
2019-04-01T03:47:10.100Z,0.00
2019-04-01T03:48:10.110Z,0.00
2019-04-01T03:49:10.120Z,0.00
2019-04-01T03:50:10.135Z,0.00
2019-04-01T03:51:10.154Z,0.00
2019-04-01T03:52:10.721Z,0.00
2019-04-01T03:53:10.175Z,0.00
2019-04-01T03:54:10.190Z,0.00
2019-04-01T03:55:10.204Z,0.00
2019-04-01T03:56:10.220Z,0.00
2019-04-01T03:57:10.233Z,0.00
2019-04-01T03:58:10.246Z,0.00
2019-04-01T03:59:10.258Z,0.00
2019-04-01T04:00:10.276Z,0.00
2019-04-01T04:01:10.293Z,0.00
2019-04-01T04:02:10.300Z,0.00
2019-04-01T04:03:10.314Z,0.00
2019-04-01T04:04:10.325Z,0.00
2019-04-01T04:05:10.339Z,0.00
2019-04-01T04:06:10.350Z,0.00
2019-04-01T04:07:10.370Z,0.00
2019-04-01T04:08:10.379Z,0.00
2019-04-01T04:09:10.391Z,0.00
2019-04-01T04:10:10.419Z,0.00
2019-04-01T04:11:10.420Z,0.00
2019-04-01T04:12:10.432Z,0.00
2019-04-01T04:13:10.455Z,0.00
2019-04-01T04:14:10.459Z,0.00
2019-04-01T04:15:10.472Z,0.00
2019-04-01T04:16:10.485Z,0.00
2019-04-01T04:17:10.504Z,0.00
2019-04-01T04:18:10.519Z,0.00
2019-04-01T04:19:10.526Z,0.00
2019-04-01T04:20:10.562Z,0.00
2019-04-01T04:21:10.554Z,0.00
2019-04-01T04:22:10.575Z,0.00
2019-04-01T04:23:10.595Z,0.00
2019-04-01T04:24:10.954Z,0.00
2019-04-01T04:25:10.610Z,0.00
2019-04-01T04:26:10.622Z,0.00
2019-04-01T04:27:11.259Z,0.00
2019-04-01T04:28:10.663Z,0.00
2019-04-01T04:29:10.665Z,0.00
2019-04-01T04:30:10.678Z,0.00
2019-04-01T04:31:10.696Z,0.00
2019-04-01T04:32:10.705Z,0.00
2019-04-01T04:33:10.717Z,0.00
2019-04-01T04:34:10.734Z,0.00
2019-04-01T04:35:10.744Z,0.00
2019-04-01T04:36:10.762Z,0.00
2019-04-01T04:37:10.768Z,0.00
2019-04-01T04:38:10.784Z,0.00
2019-04-01T04:39:10.798Z,0.00
2019-04-01T04:40:10.816Z,0.00
2019-04-01T04:41:10.825Z,0.00
2019-04-01T04:42:10.838Z,0.00
2019-04-01T04:43:10.856Z,0.00
2019-04-01T04:44:10.864Z,0.00
2019-04-01T04:45:10.881Z,0.00
2019-04-01T04:46:10.889Z,0.00
2019-04-01T04:47:10.905Z,0.00
2019-04-01T04:48:10.917Z,0.00
2019-04-01T04:49:10.937Z,0.00
2019-04-01T04:50:10.950Z,0.00
2019-04-01T04:51:10.957Z,0.00
2019-04-01T04:52:10.968Z,0.00
2019-04-01T04:53:10.983Z,0.00
2019-04-01T04:54:10.995Z,0.00
2019-04-01T04:55:11.012Z,0.00
2019-04-01T04:56:11.021Z,0.00
2019-04-01T04:57:11.035Z,0.00
2019-04-01T04:58:11.054Z,0.00
2019-04-01T04:59:11.064Z,0.00
2019-04-01T05:00:11.074Z,0.00
2019-04-01T05:01:11.139Z,0.00
2019-04-01T05:02:11.106Z,0.00
2019-04-01T05:03:11.118Z,0.00
2019-04-01T05:04:11.126Z,0.00
2019-04-01T05:05:11.149Z,0.00
2019-04-01T05:06:11.155Z,0.00
2019-04-01T05:07:11.171Z,0.00
2019-04-01T05:08:11.186Z,5.63
2019-04-01T05:09:11.198Z,5.63
2019-04-01T05:10:11.262Z,5.63
2019-04-01T05:11:11.224Z,5.63
2019-04-01T05:12:11.235Z,5.63
2019-04-01T05:13:11.250Z,5.63
2019-04-01T05:14:11.267Z,5.63
2019-04-01T05:15:11.275Z,5.63
2019-04-01T05:16:11.288Z,5.63
2019-04-01T05:17:11.305Z,5.63
2019-04-01T05:18:11.315Z,11.25
2019-04-01T05:19:11.330Z,11.25
2019-04-01T05:20:11.343Z,11.25
2019-04-01T05:21:11.358Z,11.25
2019-04-01T05:22:11.368Z,11.25
2019-04-01T05:23:11.382Z,11.25
2019-04-01T05:24:11.397Z,11.25
2019-04-01T05:25:11.415Z,11.25
2019-04-01T05:26:11.434Z,16.88
2019-04-01T05:27:11.436Z,16.88
2019-04-01T05:28:11.450Z,16.88
2019-04-01T05:29:11.462Z,16.88
2019-04-01T05:30:11.481Z,16.88
2019-04-01T05:31:14.391Z,16.88
2019-04-01T05:32:11.508Z,16.88
2019-04-01T05:33:11.515Z,16.88
2019-04-01T05:34:11.528Z,22.50
2019-04-01T05:35:11.571Z,22.50
2019-04-01T05:36:11.555Z,22.50
2019-04-01T05:37:11.569Z,22.50
2019-04-01T05:38:11.587Z,22.50
2019-04-01T05:39:11.597Z,22.50
2019-04-01T05:40:11.612Z,22.50
2019-04-01T05:41:11.627Z,22.50
2019-04-01T05:42:11.636Z,28.13
2019-04-01T05:43:11.649Z,28.13
2019-04-01T05:44:11.663Z,28.13
2019-04-01T05:45:11.684Z,28.13
2019-04-01T05:46:11.696Z,28.13
2019-04-01T05:47:11.703Z,28.13
2019-04-01T05:48:11.723Z,28.13
2019-04-01T05:49:11.735Z,28.13
2019-04-01T05:50:11.750Z,33.75
2019-04-01T05:51:11.763Z,33.75
2019-04-01T05:52:11.778Z,33.75
2019-04-01T05:53:11.788Z,33.75
2019-04-01T05:54:11.802Z,33.75
2019-04-01T05:55:11.813Z,33.75
2019-04-01T05:56:11.830Z,33.75
2019-04-01T05:57:11.843Z,33.75
2019-04-01T05:58:11.852Z,39.38
2019-04-01T05:59:11.867Z,39.38
2019-04-01T06:00:11.886Z,39.38
2019-04-01T06:01:11.899Z,39.38
2019-04-01T06:02:11.912Z,39.38
2019-04-01T06:03:11.926Z,39.38
2019-04-01T06:04:11.936Z,39.38
2019-04-01T06:05:11.948Z,39.38
2019-04-01T06:06:11.973Z,39.38
2019-04-01T06:07:11.976Z,45.00
2019-04-01T06:08:11.993Z,45.00
2019-04-01T06:09:12.003Z,45.00
2019-04-01T06:10:12.048Z,45.00
2019-04-01T06:11:12.037Z,45.00
2019-04-01T06:12:12.046Z,45.00
2019-04-01T06:13:12.059Z,45.00
2019-04-01T06:14:12.074Z,45.00
2019-04-01T06:15:12.086Z,45.00
2019-04-01T06:16:12.107Z,45.00
2019-04-01T06:17:12.175Z,45.00
2019-04-01T06:18:12.128Z,50.63
2019-04-01T06:19:12.142Z,50.63
2019-04-01T06:20:12.153Z,50.63
2019-04-01T06:21:12.177Z,50.63
2019-04-01T06:22:12.181Z,50.63
2019-04-01T06:23:12.197Z,50.63
2019-04-01T06:24:12.213Z,50.63
2019-04-01T06:25:12.248Z,50.63
2019-04-01T06:26:12.236Z,50.63
2019-04-01T06:27:12.567Z,56.25
2019-04-01T06:28:12.265Z,56.25
2019-04-01T06:29:12.280Z,56.25
2019-04-01T06:30:12.295Z,56.25
2019-04-01T06:31:12.305Z,56.25
2019-04-01T06:32:12.325Z,56.25
2019-04-01T06:33:12.335Z,56.25
2019-04-01T06:34:12.347Z,56.25
2019-04-01T06:35:12.369Z,56.25
2019-04-01T06:36:12.380Z,56.25
2019-04-01T06:37:12.389Z,61.88
2019-04-01T06:38:12.403Z,61.88
2019-04-01T06:39:12.417Z,61.88
2019-04-01T06:40:12.441Z,61.88
2019-04-01T06:41:12.447Z,61.88
2019-04-01T06:42:12.461Z,61.88
2019-04-01T06:43:12.475Z,61.88
2019-04-01T06:44:12.485Z,61.88
2019-04-01T06:45:12.501Z,61.88
2019-04-01T06:46:12.520Z,61.88
2019-04-01T06:47:12.530Z,67.50
2019-04-01T06:48:12.541Z,67.50
2019-04-01T06:49:12.556Z,67.50
2019-04-01T06:50:12.572Z,67.50
2019-04-01T06:51:12.588Z,67.50
2019-04-01T06:52:12.600Z,67.50
2019-04-01T06:53:12.614Z,67.50
2019-04-01T06:54:12.628Z,67.50
2019-04-01T06:55:12.640Z,67.50
2019-04-01T06:56:12.664Z,67.50
2019-04-01T06:57:12.671Z,73.13
2019-04-01T06:58:12.683Z,73.13
2019-04-01T06:59:12.700Z,73.13
2019-04-01T07:00:12.713Z,73.13
2019-04-01T07:01:12.727Z,73.13
2019-04-01T07:02:12.750Z,73.13
2019-04-01T07:03:12.757Z,73.13
2019-04-01T07:04:12.770Z,73.13
2019-04-01T07:05:12.916Z,73.13
2019-04-01T07:06:12.799Z,73.13
2019-04-01T07:07:19.235Z,73.13
2019-04-01T07:08:12.828Z,78.75
2019-04-01T07:09:12.840Z,78.75
2019-04-01T07:10:12.856Z,78.75
2019-04-01T07:11:12.869Z,78.75
2019-04-01T07:12:12.884Z,78.75
2019-04-01T07:14:12.941Z,78.75
2019-04-01T07:15:12.929Z,78.75
2019-04-01T07:16:15.760Z,78.75
2019-04-01T07:17:12.958Z,78.75
2019-04-01T07:18:12.972Z,84.38
2019-04-01T07:19:12.985Z,84.38
2019-04-01T07:20:13.001Z,84.38
2019-04-01T07:21:13.017Z,84.38
2019-04-01T07:22:13.032Z,84.38
2019-04-01T07:23:13.047Z,84.38
2019-04-01T07:24:13.058Z,84.38
2019-04-01T07:25:13.077Z,84.38
2019-04-01T07:26:13.092Z,84.38
2019-04-01T07:27:13.106Z,84.38
2019-04-01T07:28:13.118Z,84.38
2019-04-01T07:29:13.140Z,84.38
2019-04-01T07:30:13.146Z,84.38
2019-04-01T07:31:13.161Z,84.38
2019-04-01T07:32:14.672Z,84.38
2019-04-01T07:33:13.202Z,84.38
2019-04-01T07:34:13.209Z,84.38
2019-04-01T07:35:13.221Z,84.38
2019-04-01T07:36:13.237Z,84.38
2019-04-01T07:37:13.503Z,84.38
2019-04-01T07:38:13.269Z,84.38
2019-04-01T07:39:13.294Z,84.38
2019-04-01T07:40:14.100Z,84.38
2019-04-01T07:41:13.314Z,84.38
2019-04-01T07:42:13.326Z,84.38
2019-04-01T07:43:14.998Z,90.00
2019-04-01T07:44:13.356Z,90.00
2019-04-01T07:45:13.373Z,90.00
2019-04-01T07:46:13.387Z,90.00
2019-04-01T07:47:13.407Z,90.00
2019-04-01T07:48:13.421Z,90.00
2019-04-01T07:49:13.432Z,90.00
2019-04-01T07:50:15.007Z,90.00
2019-04-01T07:51:13.548Z,90.00
2019-04-01T07:52:13.482Z,90.00
2019-04-01T07:53:13.495Z,90.00
2019-04-01T07:54:13.515Z,90.00
2019-04-01T07:55:13.524Z,90.00
2019-04-01T07:56:13.542Z,90.00
2019-04-01T07:57:13.557Z,95.63
2019-04-01T07:58:13.577Z,95.63
2019-04-01T07:59:13.587Z,95.63
2019-04-01T08:00:13.604Z,95.63
2019-04-01T08:01:13.628Z,95.63
2019-04-01T08:02:13.636Z,95.63
2019-04-01T08:03:13.648Z,95.63
2019-04-01T08:04:13.664Z,95.63
2019-04-01T08:05:13.686Z,95.63
2019-04-01T08:06:13.697Z,95.63
2019-04-01T08:07:13.851Z,95.63
2019-04-01T08:08:13.728Z,95.63
2019-04-01T08:09:13.742Z,95.63
2019-04-01T08:10:13.760Z,95.63
2019-04-01T08:11:13.774Z,101.25
2019-04-01T08:12:13.795Z,101.25
2019-04-01T08:13:13.820Z,101.25
2019-04-01T08:14:13.821Z,101.25
2019-04-01T08:15:13.846Z,101.25
2019-04-01T08:16:13.853Z,101.25
2019-04-01T08:17:13.876Z,101.25
2019-04-01T08:18:13.887Z,101.25
2019-04-01T08:19:13.910Z,101.25
2019-04-01T08:20:13.918Z,101.25
2019-04-01T08:21:13.938Z,106.88
2019-04-01T08:22:13.952Z,106.88
2019-04-01T08:23:13.971Z,106.88
2019-04-01T08:24:13.987Z,106.88
2019-04-01T08:25:14.006Z,106.88
2019-04-01T08:26:14.013Z,106.88
2019-04-01T08:27:14.031Z,106.88
2019-04-01T08:28:14.046Z,106.88
2019-04-01T08:29:28.969Z,106.88
2019-04-01T08:30:14.078Z,106.88
2019-04-01T08:31:14.094Z,118.13
2019-04-01T08:32:14.394Z,112.50
2019-04-01T08:33:14.126Z,112.50
2019-04-01T08:34:14.140Z,112.50
2019-04-01T08:35:14.158Z,112.50
2019-04-01T08:36:14.174Z,112.50
2019-04-01T08:37:14.191Z,118.13
2019-04-01T08:38:14.214Z,118.13
2019-04-01T08:39:14.222Z,118.13
2019-04-01T08:40:14.245Z,118.13
2019-04-01T08:41:14.262Z,118.13
2019-04-01T08:42:14.272Z,118.13
2019-04-01T08:43:14.290Z,118.13
2019-04-01T08:44:14.303Z,118.13
2019-04-01T08:45:14.321Z,123.75
2019-04-01T08:46:14.339Z,123.75
2019-04-01T08:47:14.361Z,123.75
2019-04-01T08:48:14.375Z,123.75
2019-04-01T08:49:14.387Z,123.75
2019-04-01T08:50:14.408Z,123.75
2019-04-01T08:51:14.426Z,123.75
2019-04-01T08:52:14.436Z,129.38
2019-04-01T08:53:14.456Z,129.38
2019-04-01T08:54:14.471Z,129.38
2019-04-01T08:55:14.493Z,129.38
2019-04-01T08:56:14.507Z,129.38
2019-04-01T08:57:14.530Z,129.38
2019-04-01T08:58:14.543Z,135.00
2019-04-01T08:59:14.554Z,129.38
2019-04-01T09:00:14.568Z,129.38
2019-04-01T09:01:14.591Z,129.38
2019-04-01T09:02:18.096Z,135.00
2019-04-01T09:03:14.621Z,135.00
2019-04-01T09:04:14.635Z,135.00
2019-04-01T09:05:14.652Z,135.00
2019-04-01T09:06:14.670Z,135.00
2019-04-01T09:07:14.690Z,135.00
2019-04-01T09:08:14.705Z,135.00
2019-04-01T09:09:14.721Z,129.38
2019-04-01T09:10:14.744Z,129.38
2019-04-01T09:11:14.761Z,129.38
2019-04-01T09:12:14.775Z,129.38
2019-04-01T09:13:14.798Z,129.38
2019-04-01T09:14:14.815Z,129.38
2019-04-01T09:15:14.825Z,129.38
2019-04-01T09:16:14.842Z,129.38
2019-04-01T09:17:14.860Z,129.38
2019-04-01T09:18:14.879Z,135.00
2019-04-01T09:19:14.899Z,135.00
2019-04-01T09:20:14.918Z,129.38
2019-04-01T09:21:14.926Z,135.00
2019-04-01T09:22:14.946Z,135.00
2019-04-01T09:23:14.966Z,140.63
2019-04-01T09:24:14.980Z,135.00
2019-04-01T09:25:15.080Z,135.00
2019-04-01T09:26:15.017Z,135.00
2019-04-01T09:27:15.031Z,135.00
2019-04-01T09:28:15.051Z,135.00
2019-04-01T09:29:15.068Z,135.00
2019-04-01T09:30:18.516Z,135.00
2019-04-01T09:31:15.103Z,135.00
2019-04-01T09:32:15.130Z,140.63
2019-04-01T09:33:15.138Z,135.00
2019-04-01T09:34:15.161Z,135.00
2019-04-01T09:35:15.172Z,135.00
2019-04-01T09:36:15.191Z,135.00
2019-04-01T09:37:15.208Z,135.00
2019-04-01T09:38:15.226Z,135.00
2019-04-01T09:39:15.244Z,135.00
2019-04-01T09:40:15.260Z,135.00
2019-04-01T09:41:15.279Z,135.00
2019-04-01T09:42:15.296Z,135.00
2019-04-01T09:43:15.313Z,135.00
2019-04-01T09:44:15.330Z,135.00
2019-04-01T09:45:15.351Z,135.00
2019-04-01T09:46:15.368Z,135.00
2019-04-01T09:47:15.384Z,135.00
2019-04-01T09:48:15.403Z,135.00
2019-04-01T09:49:15.421Z,135.00
2019-04-01T09:50:15.438Z,135.00
2019-04-01T09:51:15.462Z,135.00
2019-04-01T09:52:15.484Z,135.00
2019-04-01T09:53:15.493Z,135.00
2019-04-01T09:54:15.511Z,135.00
2019-04-01T09:55:15.537Z,135.00
2019-04-01T09:56:15.547Z,135.00
2019-04-01T09:57:18.339Z,135.00
2019-04-01T09:58:15.587Z,135.00
2019-04-01T09:59:15.604Z,135.00
2019-04-01T10:00:15.618Z,129.38
2019-04-01T10:01:15.637Z,135.00
2019-04-01T10:02:15.703Z,129.38
2019-04-01T10:03:15.672Z,129.38
2019-04-01T10:04:15.689Z,135.00
2019-04-01T10:05:15.707Z,129.38
2019-04-01T10:06:15.725Z,135.00
2019-04-01T10:07:15.823Z,129.38
2019-04-01T10:08:15.761Z,129.38
2019-04-01T10:09:15.779Z,129.38
2019-04-01T10:10:15.875Z,129.38
2019-04-01T10:11:15.818Z,129.38
2019-04-01T10:12:15.837Z,129.38
2019-04-01T10:13:15.851Z,135.00
2019-04-01T10:14:15.867Z,129.38
2019-04-01T10:15:15.888Z,129.38
2019-04-01T10:16:15.911Z,135.00
2019-04-01T10:17:15.921Z,129.38
2019-04-01T10:18:15.939Z,135.00
2019-04-01T10:19:15.960Z,129.38
2019-04-01T10:20:15.978Z,129.38
2019-04-01T10:21:15.996Z,135.00
2019-04-01T10:22:16.012Z,129.38
2019-04-01T10:23:16.035Z,129.38
2019-04-01T10:24:16.051Z,135.00
2019-04-01T10:25:16.066Z,135.00
2019-04-01T10:26:16.093Z,135.00
2019-04-01T10:27:16.112Z,135.00
2019-04-01T10:28:16.123Z,129.38
2019-04-01T10:29:16.141Z,135.00
2019-04-01T10:30:16.159Z,135.00
2019-04-01T10:31:16.180Z,135.00
2019-04-01T10:32:16.192Z,135.00
2019-04-01T10:33:16.217Z,135.00
2019-04-01T10:34:16.382Z,135.00
2019-04-01T10:35:16.251Z,135.00
2019-04-01T10:36:16.266Z,135.00
2019-04-01T10:37:16.298Z,135.00
2019-04-01T10:38:16.306Z,135.00
2019-04-01T10:39:16.323Z,135.00
2019-04-01T10:40:16.338Z,135.00
2019-04-01T10:41:16.360Z,135.00
2019-04-01T10:42:16.375Z,135.00
2019-04-01T10:43:16.396Z,135.00
2019-04-01T10:44:16.415Z,135.00
2019-04-01T10:45:16.431Z,135.00
2019-04-01T10:46:16.455Z,129.38
2019-04-01T10:47:16.475Z,129.38
2019-04-01T10:48:16.520Z,135.00
2019-04-01T10:49:16.527Z,135.00
2019-04-01T10:50:16.539Z,129.38
2019-04-01T10:51:16.580Z,129.38
2019-04-01T10:52:16.586Z,135.00
2019-04-01T10:53:16.659Z,129.38
2019-04-01T10:54:16.671Z,129.38
2019-04-01T10:55:16.673Z,129.38
2019-04-01T10:56:16.634Z,129.38
2019-04-01T10:57:16.687Z,129.38
2019-04-01T10:58:16.672Z,129.38
2019-04-01T10:59:16.719Z,135.00
2019-04-01T11:00:16.717Z,129.38
2019-04-01T11:01:16.751Z,135.00
2019-04-01T11:02:18.384Z,129.38
2019-04-01T11:03:16.828Z,135.00
2019-04-01T11:04:16.824Z,129.38
2019-04-01T11:05:16.834Z,129.38
2019-04-01T11:06:16.818Z,129.38
2019-04-01T11:07:16.897Z,135.00
2019-04-01T11:08:17.013Z,129.38
2019-04-01T11:09:17.019Z,129.38
2019-04-01T11:10:16.891Z,129.38
2019-04-01T11:11:16.913Z,129.38
2019-04-01T11:12:16.927Z,129.38
2019-04-01T11:13:16.957Z,123.75
2019-04-01T11:14:16.967Z,129.38
2019-04-01T11:15:17.238Z,129.38
2019-04-01T11:16:17.190Z,129.38
2019-04-01T11:17:17.035Z,129.38
2019-04-01T11:18:17.042Z,129.38
2019-04-01T11:19:17.064Z,129.38
2019-04-01T11:20:17.083Z,129.38
2019-04-01T11:21:17.095Z,129.38
2019-04-01T11:22:17.121Z,129.38
2019-04-01T11:23:17.134Z,129.38
2019-04-01T11:24:17.166Z,129.38
2019-04-01T11:25:17.202Z,129.38
2019-04-01T11:26:17.189Z,123.75
2019-04-01T11:27:17.205Z,129.38
2019-04-01T11:28:17.226Z,123.75
2019-04-01T11:29:17.248Z,123.75
2019-04-01T11:30:17.301Z,123.75
2019-04-01T11:31:17.287Z,123.75
2019-04-01T11:32:17.354Z,123.75
2019-04-01T11:33:17.316Z,123.75
2019-04-01T11:34:17.353Z,123.75
2019-04-01T11:35:17.425Z,123.75
2019-04-01T11:36:17.374Z,123.75
2019-04-01T11:37:17.512Z,123.75
2019-04-01T11:38:17.409Z,123.75
2019-04-01T11:39:17.491Z,123.75
2019-04-01T11:40:17.460Z,123.75
2019-04-01T11:41:17.501Z,123.75
2019-04-01T11:42:17.483Z,123.75
2019-04-01T11:43:17.519Z,123.75
2019-04-01T11:44:17.566Z,123.75
2019-04-01T11:45:17.564Z,123.75
2019-04-01T11:46:17.596Z,129.38
2019-04-01T11:47:17.635Z,123.75
2019-04-01T11:48:17.699Z,123.75
2019-04-01T11:49:17.657Z,123.75
2019-04-01T11:50:17.668Z,123.75
2019-04-01T11:51:31.860Z,123.75
2019-04-01T11:52:17.679Z,123.75
2019-04-01T11:53:17.686Z,123.75
2019-04-01T11:54:17.704Z,123.75
2019-04-01T11:55:17.731Z,123.75
2019-04-01T11:56:17.741Z,123.75
2019-04-01T11:57:17.765Z,123.75
2019-04-01T11:58:17.798Z,123.75
2019-04-01T11:59:17.804Z,123.75
2019-04-01T12:00:17.822Z,123.75
2019-04-01T12:01:17.835Z,123.75
2019-04-01T12:02:17.859Z,123.75
2019-04-01T12:03:17.874Z,123.75
2019-04-01T12:04:17.892Z,123.75
2019-04-01T12:05:17.915Z,123.75
2019-04-01T12:06:17.935Z,123.75
2019-04-01T12:07:17.949Z,123.75
2019-04-01T12:08:17.973Z,123.75
2019-04-01T12:09:17.984Z,123.75
2019-04-01T12:10:18.005Z,123.75
2019-04-01T12:11:18.021Z,123.75
2019-04-01T12:12:23.835Z,123.75
2019-04-01T12:13:18.058Z,118.13
2019-04-01T12:14:18.080Z,123.75
2019-04-01T12:15:18.107Z,118.13
2019-04-01T12:16:18.124Z,123.75
2019-04-01T12:17:18.142Z,123.75
2019-04-01T12:18:18.154Z,123.75
2019-04-01T12:19:18.373Z,123.75
2019-04-01T12:20:18.193Z,118.13
2019-04-01T12:21:18.209Z,123.75
2019-04-01T12:22:19.883Z,118.13
2019-04-01T12:23:18.253Z,123.75
2019-04-01T12:24:18.278Z,118.13
2019-04-01T12:25:18.284Z,123.75
2019-04-01T12:26:18.306Z,118.13
2019-04-01T12:27:18.323Z,118.13
2019-04-01T12:28:18.342Z,118.13
2019-04-01T12:29:18.360Z,123.75
2019-04-01T12:30:18.381Z,118.13
2019-04-01T12:31:18.401Z,118.13
2019-04-01T12:32:18.416Z,123.75
2019-04-01T12:33:18.647Z,118.13
2019-04-01T12:34:18.457Z,118.13
2019-04-01T12:35:19.306Z,118.13
2019-04-01T12:36:19.272Z,118.13
2019-04-01T12:37:18.515Z,118.13
2019-04-01T12:38:18.538Z,118.13
2019-04-01T12:39:18.951Z,118.13
2019-04-01T12:40:18.568Z,118.13
2019-04-01T12:41:19.089Z,123.75
2019-04-01T12:42:18.608Z,118.13
2019-04-01T12:43:18.625Z,118.13
2019-04-01T12:44:18.653Z,118.13
2019-04-01T12:45:18.667Z,118.13
2019-04-01T12:46:18.691Z,118.13
2019-04-01T12:47:18.702Z,118.13
2019-04-01T12:48:18.722Z,118.13
2019-04-01T12:49:18.741Z,118.13
2019-04-01T12:50:18.763Z,118.13
2019-04-01T12:51:18.780Z,118.13
2019-04-01T12:52:18.796Z,118.13
2019-04-01T12:53:18.815Z,118.13
2019-04-01T12:54:18.843Z,118.13